createdAt,value
2018-11-27T00:01:07.266Z,18.67
2018-11-27T00:03:40.410Z,15.93
2018-11-27T00:06:07.705Z,17.77
2018-11-27T00:08:35.280Z,17.52
2018-11-27T00:11:02.590Z,18.20
2018-11-27T00:13:29.925Z,18.42
2018-11-27T00:15:57.753Z,17.23
2018-11-27T00:18:25.061Z,16.87
2018-11-27T00:20:52.700Z,18.90
2018-11-27T00:23:20.211Z,18.12
2018-11-27T00:25:47.885Z,18.20
2018-11-27T00:28:15.434Z,18.20
2018-11-27T00:30:42.804Z,17.85
2018-11-27T00:33:10.150Z,17.85
2018-11-27T00:35:37.453Z,18.25
2018-11-27T00:38:04.781Z,17.52
2018-11-27T00:40:32.436Z,17.95
2018-11-27T00:42:59.800Z,19.50
2018-11-27T00:45:27.328Z,17.35
2018-11-27T00:47:54.669Z,17.60
2018-11-27T00:50:22.684Z,18.37
2018-11-27T00:52:50.237Z,17.95
2018-11-27T00:55:18.200Z,19.87
2018-11-27T00:57:46.202Z,21.27
2018-11-27T01:00:14.293Z,18.70
2018-11-27T01:02:41.825Z,17.07
2018-11-27T01:05:10.013Z,19.67
2018-11-27T01:07:37.347Z,16.93
2018-11-27T01:10:05.810Z,18.30
2018-11-27T01:12:33.506Z,19.57
2018-11-27T01:15:00.812Z,17.32
2018-11-27T01:17:28.154Z,16.90
2018-11-27T01:19:55.460Z,17.70
2018-11-27T01:22:23.104Z,18.75
2018-11-27T01:24:50.656Z,19.12
2018-11-27T01:27:18.211Z,19.48
2018-11-27T01:29:45.794Z,19.00
2018-11-27T01:32:13.337Z,18.55
2018-11-27T01:34:40.672Z,17.73
2018-11-27T01:37:07.994Z,17.92
2018-11-27T01:39:35.309Z,18.17
2018-11-27T01:42:02.874Z,16.07
2018-11-27T01:44:30.206Z,18.17
2018-11-27T01:46:58.001Z,17.85
2018-11-27T01:49:25.561Z,18.90
2018-11-27T01:51:53.135Z,18.92
2018-11-27T01:54:20.444Z,17.65
2018-11-27T01:56:47.777Z,18.60
2018-11-27T01:59:15.342Z,19.10
2018-11-27T02:01:42.928Z,19.75
2018-11-27T02:04:10.293Z,18.02
2018-11-27T02:06:37.604Z,18.35
2018-11-27T02:09:06.941Z,18.75
2018-11-27T02:11:35.029Z,18.77
2018-11-27T02:14:02.597Z,19.27
2018-11-27T02:16:29.931Z,19.73
2018-11-27T02:18:57.713Z,20.12
2018-11-27T02:21:25.252Z,17.57
2018-11-27T02:23:52.898Z,18.62
2018-11-27T02:26:20.233Z,17.82
2018-11-27T02:28:47.585Z,19.25
2018-11-27T02:31:14.890Z,17.80
2018-11-27T02:33:42.767Z,18.40
2018-11-27T02:36:10.099Z,20.55
2018-11-27T02:38:37.413Z,19.27
2018-11-27T02:41:05.097Z,19.30
2018-11-27T02:43:32.634Z,18.87
2018-11-27T02:46:00.191Z,20.15
2018-11-27T02:48:27.527Z,21.65
2018-11-27T02:50:55.081Z,19.32
2018-11-27T02:53:22.675Z,19.92
2018-11-27T02:55:50.005Z,18.55
2018-11-27T02:58:17.306Z,20.90
2018-11-27T03:00:46.638Z,18.85
2018-11-27T03:03:14.067Z,19.92
2018-11-27T03:05:41.414Z,19.37
2018-11-27T03:08:09.085Z,17.95
2018-11-27T03:10:36.415Z,21.07
2018-11-27T03:13:03.992Z,20.08
2018-11-27T03:15:31.330Z,19.75
2018-11-27T03:17:58.769Z,20.97
2018-11-27T03:20:26.091Z,20.45
2018-11-27T03:22:53.395Z,20.17
2018-11-27T03:25:21.744Z,19.67
2018-11-27T03:27:49.968Z,19.00
2018-11-27T03:30:18.095Z,20.20
2018-11-27T03:32:45.429Z,21.12
2018-11-27T03:35:13.224Z,20.15
2018-11-27T03:37:40.794Z,19.67
2018-11-27T03:40:10.159Z,20.27
2018-11-27T03:42:37.480Z,21.35
2018-11-27T03:45:05.373Z,20.40
2018-11-27T03:47:32.744Z,21.17
2018-11-27T03:50:00.318Z,21.65
2018-11-27T03:52:27.641Z,20.52
2018-11-27T03:54:55.205Z,19.10
2018-11-27T03:57:23.014Z,20.50
2018-11-27T03:59:50.342Z,19.70
2018-11-27T04:02:17.697Z,19.87
2018-11-27T04:04:45.006Z,21.73
2018-11-27T04:07:12.294Z,21.97
2018-11-27T04:09:39.848Z,23.30
2018-11-27T04:12:07.277Z,21.40
2018-11-27T04:14:34.909Z,20.23
2018-11-27T04:17:02.420Z,20.70
2018-11-27T04:19:29.740Z,20.00
2018-11-27T04:21:57.065Z,22.00
2018-11-27T04:24:25.263Z,23.25
2018-11-27T04:26:52.575Z,21.33
2018-11-27T04:29:20.573Z,20.75
2018-11-27T04:31:47.910Z,20.68
2018-11-27T04:34:15.296Z,22.35
2018-11-27T04:36:43.073Z,21.62
2018-11-27T04:39:10.411Z,21.10
2018-11-27T04:41:37.970Z,20.92
2018-11-27T04:44:05.532Z,22.13
2018-11-27T04:46:33.193Z,22.05
2018-11-27T04:49:00.712Z,20.77
2018-11-27T04:51:28.259Z,22.60
2018-11-27T04:53:55.562Z,20.68
2018-11-27T04:56:22.939Z,21.40
2018-11-27T04:58:50.229Z,21.35
2018-11-27T05:01:17.525Z,22.13
2018-11-27T05:03:44.853Z,23.27
2018-11-27T05:06:12.407Z,27.00
2018-11-27T05:08:40.107Z,25.20
2018-11-27T05:11:07.677Z,22.58
2018-11-27T05:13:35.469Z,23.55
2018-11-27T05:16:02.801Z,22.42
2018-11-27T05:18:30.533Z,21.73
2018-11-27T05:20:57.830Z,22.75
2018-11-27T05:23:25.168Z,22.00
2018-11-27T05:25:52.928Z,21.60
2018-11-27T05:28:20.213Z,22.70
2018-11-27T05:30:48.077Z,25.43
2018-11-27T05:33:15.385Z,25.82
2018-11-27T05:35:42.720Z,22.45
2018-11-27T05:38:10.286Z,21.40
2018-11-27T05:40:38.106Z,22.37
2018-11-27T05:43:07.309Z,22.50
2018-11-27T05:45:34.637Z,26.25
2018-11-27T05:48:02.012Z,24.43
2018-11-27T05:50:29.581Z,24.23
2018-11-27T05:52:57.374Z,23.05
2018-11-27T05:55:24.715Z,25.10
2018-11-27T05:57:52.949Z,27.02
2018-11-27T06:00:21.949Z,26.02
2018-11-27T06:02:50.309Z,24.65
2018-11-27T06:05:18.183Z,24.52
2018-11-27T06:07:45.866Z,24.67
2018-11-27T06:10:14.616Z,21.93
2018-11-27T06:12:41.935Z,23.15
2018-11-27T06:15:10.155Z,23.75
2018-11-27T06:17:37.469Z,23.73
2018-11-27T06:20:07.031Z,23.42
2018-11-27T06:22:34.774Z,22.15
2018-11-27T06:25:02.413Z,23.12
2018-11-27T06:27:29.746Z,24.18
2018-11-27T06:29:57.096Z,23.90
2018-11-27T06:32:25.198Z,24.55
2018-11-27T06:34:52.784Z,26.02
2018-11-27T06:37:20.480Z,24.70
2018-11-27T06:39:48.003Z,24.27
2018-11-27T06:42:15.318Z,25.25
2018-11-27T06:44:43.090Z,24.20
2018-11-27T06:47:10.660Z,34.90
2018-11-27T06:49:37.973Z,28.67
2018-11-27T06:52:05.571Z,24.82
2018-11-27T06:54:32.868Z,39.67
2018-11-27T06:57:00.193Z,24.70
2018-11-27T06:59:27.760Z,24.63
2018-11-27T07:01:55.077Z,24.50
2018-11-27T07:04:22.625Z,22.52
2018-11-27T07:06:49.995Z,24.12
2018-11-27T07:09:17.562Z,23.80
2018-11-27T07:11:45.409Z,24.45
2018-11-27T07:14:12.770Z,24.47
2018-11-27T07:16:40.377Z,26.30
2018-11-27T07:19:07.964Z,24.12
2018-11-27T07:21:35.512Z,26.87
2018-11-27T07:24:03.578Z,23.87
2018-11-27T07:26:31.196Z,24.43
2018-11-27T07:28:58.522Z,24.82
2018-11-27T07:31:26.097Z,23.25
2018-11-27T07:33:53.526Z,25.17
2018-11-27T07:36:21.155Z,25.95
2018-11-27T07:38:48.941Z,24.47
2018-11-27T07:41:16.492Z,25.80
2018-11-27T07:43:43.827Z,24.92
2018-11-27T07:46:11.383Z,26.85
2018-11-27T07:48:38.725Z,24.00
2018-11-27T07:51:06.052Z,22.77
2018-11-27T07:53:33.950Z,24.98
2018-11-27T07:56:01.535Z,23.85
2018-11-27T07:58:28.861Z,25.60
2018-11-27T08:00:56.184Z,24.63
2018-11-27T08:03:23.834Z,23.62
2018-11-27T08:05:51.237Z,23.25
2018-11-27T08:08:19.346Z,23.95
2018-11-27T08:10:48.323Z,24.57
2018-11-27T08:13:15.682Z,22.20
2018-11-27T08:15:43.049Z,24.00
2018-11-27T08:18:10.749Z,25.08
2018-11-27T08:20:38.061Z,25.30
2018-11-27T08:23:05.945Z,24.77
2018-11-27T08:25:33.297Z,25.02
2018-11-27T08:28:00.893Z,25.32
2018-11-27T08:30:28.522Z,23.65
2018-11-27T08:32:56.496Z,25.50
2018-11-27T08:35:24.766Z,25.52
2018-11-27T08:37:52.629Z,23.92
2018-11-27T08:40:20.904Z,25.60
2018-11-27T08:42:48.466Z,24.92
2018-11-27T08:45:16.523Z,24.25
2018-11-27T08:47:44.106Z,25.50
2018-11-27T08:50:14.931Z,24.92
2018-11-27T08:52:46.728Z,25.72
2018-11-27T08:55:13.271Z,26.48
2018-11-27T08:57:41.687Z,24.12
2018-11-27T09:00:11.555Z,25.12
2018-11-27T09:02:38.915Z,24.95
2018-11-27T09:05:06.634Z,25.10
2018-11-27T09:07:34.503Z,24.20
2018-11-27T09:10:01.959Z,24.43
2018-11-27T09:12:29.285Z,26.90
2018-11-27T09:14:56.889Z,27.02
2018-11-27T09:17:24.436Z,26.20
2018-11-27T09:19:51.901Z,25.92
2018-11-27T09:22:19.251Z,26.90
2018-11-27T09:24:46.808Z,26.52
2018-11-27T09:27:14.161Z,27.27
2018-11-27T09:29:41.935Z,26.60
2018-11-27T09:32:09.685Z,26.42
2018-11-27T09:34:37.038Z,25.25
2018-11-27T09:37:04.588Z,27.17
2018-11-27T09:39:32.145Z,28.87
2018-11-27T09:41:59.716Z,25.52
2018-11-27T09:44:27.512Z,23.47
2018-11-27T09:46:54.972Z,25.95
2018-11-27T09:49:22.278Z,25.25
2018-11-27T09:51:49.837Z,24.60
2018-11-27T09:54:17.644Z,25.97
2018-11-27T09:56:45.032Z,24.80
2018-11-27T09:59:12.340Z,25.62
2018-11-27T10:01:39.909Z,24.70
2018-11-27T10:04:07.262Z,24.90
2018-11-27T10:06:35.137Z,25.05
2018-11-27T10:09:02.517Z,27.45
2018-11-27T10:11:29.850Z,24.45
2018-11-27T10:13:57.165Z,25.85
2018-11-27T10:16:24.521Z,25.48
2018-11-27T10:18:52.106Z,26.70
2018-11-27T10:21:19.863Z,26.75
2018-11-27T10:23:47.420Z,24.32
2018-11-27T10:26:14.823Z,26.40
2018-11-27T10:28:42.139Z,26.35
2018-11-27T10:31:09.614Z,26.75
2018-11-27T10:33:37.106Z,26.95
2018-11-27T10:36:04.589Z,25.37
2018-11-27T10:38:31.990Z,27.48
2018-11-27T10:40:59.390Z,25.72
2018-11-27T10:43:27.136Z,25.15
2018-11-27T10:45:54.453Z,26.12
2018-11-27T10:48:21.789Z,27.50
2018-11-27T10:50:49.346Z,26.80
2018-11-27T10:53:17.479Z,28.23
2018-11-27T10:55:44.841Z,26.20
2018-11-27T10:58:12.678Z,27.13
2018-11-27T11:00:45.466Z,28.10
2018-11-27T11:03:43.393Z,26.82
2018-11-27T11:06:10.833Z,25.70
2018-11-27T11:08:38.173Z,26.85
2018-11-27T11:11:06.159Z,29.10
2018-11-27T11:13:33.654Z,27.58
2018-11-27T11:16:01.503Z,27.20
2018-11-27T11:18:29.424Z,24.43
2018-11-27T11:20:57.510Z,27.75
2018-11-27T11:23:25.290Z,26.02
2018-11-27T11:25:52.629Z,26.48
2018-11-27T11:28:20.805Z,26.07
2018-11-27T11:30:48.388Z,25.55
2018-11-27T11:33:15.772Z,26.73
2018-11-27T11:35:43.164Z,25.08
2018-11-27T11:38:10.744Z,25.55
2018-11-27T11:40:38.533Z,26.65
2018-11-27T11:43:06.607Z,25.17
2018-11-27T11:45:34.100Z,21.93
2018-11-27T11:48:01.452Z,27.07
2018-11-27T11:50:30.060Z,25.43
2018-11-27T11:53:01.700Z,26.33
2018-11-27T11:55:29.511Z,25.88
2018-11-27T11:57:57.018Z,25.02
2018-11-27T12:00:26.382Z,26.10
2018-11-27T12:02:54.413Z,24.70
2018-11-27T12:05:25.069Z,26.93
2018-11-27T12:07:50.069Z,25.80
2018-11-27T12:10:17.486Z,25.92
2018-11-27T12:12:45.461Z,24.57
2018-11-27T12:15:13.343Z,25.15
2018-11-27T12:17:40.840Z,24.67
2018-11-27T12:20:09.424Z,25.02
2018-11-27T12:22:36.720Z,26.25
2018-11-27T12:25:04.618Z,24.57
2018-11-27T12:27:32.035Z,23.80
2018-11-27T12:29:59.402Z,24.35
2018-11-27T12:32:26.718Z,25.23
2018-11-27T12:34:54.034Z,26.93
2018-11-27T12:37:21.916Z,23.80
2018-11-27T12:39:49.218Z,23.65
2018-11-27T12:42:16.566Z,22.42
2018-11-27T12:44:44.337Z,22.90
2018-11-27T12:47:11.990Z,25.55
2018-11-27T12:49:39.534Z,22.58
2018-11-27T12:52:07.113Z,21.60
2018-11-27T12:54:34.527Z,24.00
2018-11-27T12:57:01.926Z,23.92
2018-11-27T12:59:29.601Z,22.15
2018-11-27T13:01:56.984Z,22.67
2018-11-27T13:04:25.101Z,22.58
2018-11-27T13:06:52.701Z,23.38
2018-11-27T13:09:20.553Z,22.50
2018-11-27T13:11:47.912Z,22.77
2018-11-27T13:14:15.478Z,22.32
2018-11-27T13:16:43.052Z,21.45
2018-11-27T13:19:10.368Z,21.70
2018-11-27T13:21:37.698Z,21.10
2018-11-27T13:24:05.670Z,21.70
2018-11-27T13:26:33.189Z,24.85
2018-11-27T13:29:00.781Z,23.30
2018-11-27T13:31:29.102Z,22.55
2018-11-27T13:33:57.702Z,22.42
2018-11-27T13:36:25.083Z,24.92
2018-11-27T13:38:52.364Z,22.35
2018-11-27T13:41:19.938Z,22.10
2018-11-27T13:43:47.344Z,20.72
2018-11-27T13:46:14.687Z,21.52
2018-11-27T13:48:42.028Z,21.15
2018-11-27T13:51:09.819Z,20.95
2018-11-27T13:53:37.142Z,21.33
2018-11-27T13:56:04.934Z,19.48
2018-11-27T13:58:32.298Z,16.80
2018-11-27T14:01:00.120Z,17.30
2018-11-27T14:03:27.845Z,18.00
2018-11-27T14:05:55.653Z,17.92
2018-11-27T14:08:23.268Z,18.15
2018-11-27T14:10:50.909Z,19.62
2018-11-27T14:13:18.281Z,15.93
2018-11-27T14:15:45.906Z,14.25
2018-11-27T14:18:13.280Z,13.90
2018-11-27T14:20:40.635Z,12.58
2018-11-27T14:23:08.207Z,14.00
2018-11-27T14:25:36.074Z,13.40
2018-11-27T14:28:03.453Z,12.25
2018-11-27T14:30:30.873Z,13.40
2018-11-27T14:32:58.663Z,14.75
2018-11-27T14:35:26.050Z,11.35
2018-11-27T14:37:53.973Z,10.90
2018-11-27T14:40:22.434Z,13.43
2018-11-27T14:42:50.632Z,10.78
2018-11-27T14:45:18.602Z,10.82
2018-11-27T14:47:46.587Z,13.70
2018-11-27T14:50:14.235Z,12.45
2018-11-27T14:52:41.796Z,12.05
2018-11-27T14:55:10.785Z,11.85
2018-11-27T14:57:38.117Z,11.20
2018-11-27T15:00:07.810Z,11.90
2018-11-27T15:02:35.423Z,10.50
2018-11-27T15:05:02.727Z,11.68
2018-11-27T15:07:30.643Z,11.90
2018-11-27T15:09:58.201Z,10.85
2018-11-27T15:12:25.586Z,11.57
2018-11-27T15:14:53.368Z,11.70
2018-11-27T15:17:20.927Z,12.65
2018-11-27T15:19:48.270Z,13.30
2018-11-27T15:22:15.841Z,13.95
2018-11-27T15:24:43.137Z,13.20
2018-11-27T15:27:10.722Z,11.53
2018-11-27T15:29:38.268Z,14.05
2018-11-27T15:32:05.870Z,14.05
2018-11-27T15:34:33.750Z,13.60
2018-11-27T15:37:01.409Z,14.38
2018-11-27T15:39:28.968Z,14.13
2018-11-27T15:41:56.256Z,14.45
2018-11-27T15:44:23.653Z,14.65
2018-11-27T15:46:51.076Z,12.98
2018-11-27T15:49:18.505Z,14.35
2018-11-27T15:51:46.044Z,15.03
2018-11-27T15:54:14.737Z,14.75
2018-11-27T15:56:45.263Z,13.75
2018-11-27T15:59:13.752Z,14.83
2018-11-27T16:01:41.669Z,16.62
2018-11-27T16:04:10.614Z,14.40
2018-11-27T16:06:38.389Z,15.20
2018-11-27T16:09:09.520Z,16.50
2018-11-27T16:11:40.066Z,15.30
2018-11-27T16:14:09.577Z,17.27
2018-11-27T16:16:37.627Z,16.10
2018-11-27T16:19:08.543Z,15.83
2018-11-27T16:21:38.176Z,17.73
2018-11-27T16:24:06.039Z,17.57
2018-11-27T16:26:33.728Z,18.02
2018-11-27T16:29:02.096Z,16.32
2018-11-27T16:31:29.469Z,16.37
2018-11-27T16:33:57.968Z,17.80
2018-11-27T16:36:27.155Z,18.85
2018-11-27T16:38:54.798Z,19.10
2018-11-27T16:41:22.785Z,20.00
2018-11-27T16:43:51.704Z,19.27
2018-11-27T16:46:19.471Z,18.67
2018-11-27T16:48:47.233Z,20.00
2018-11-27T16:51:16.194Z,17.40
2018-11-27T16:53:49.714Z,17.15
2018-11-27T16:56:17.210Z,15.45
2018-11-27T16:58:45.070Z,16.17
2018-11-27T17:01:13.218Z,18.27
2018-11-27T17:03:40.643Z,14.13
2018-11-27T17:06:09.300Z,16.40
2018-11-27T17:08:37.420Z,15.65
2018-11-27T17:11:05.602Z,15.13
2018-11-27T17:13:33.972Z,17.52
2018-11-27T17:16:02.392Z,15.13
2018-11-27T17:18:30.590Z,15.55
2018-11-27T17:21:02.351Z,17.95
2018-11-27T17:23:30.147Z,17.40
2018-11-27T17:26:03.872Z,17.67
2018-11-27T17:28:27.434Z,16.27
2018-11-27T17:30:58.985Z,17.00
2018-11-27T17:33:31.778Z,17.90
2018-11-27T17:36:01.575Z,15.45
2018-11-27T17:38:30.547Z,16.80
2018-11-27T17:41:01.295Z,16.60
2018-11-27T17:43:29.083Z,16.23
2018-11-27T17:45:56.628Z,15.35
2018-11-27T17:48:24.412Z,17.90
2018-11-27T17:50:52.473Z,17.62
2018-11-27T17:53:20.146Z,17.92
2018-11-27T17:55:47.975Z,16.07
2018-11-27T17:58:15.461Z,16.07
2018-11-27T18:00:42.965Z,16.57
2018-11-27T18:03:10.802Z,17.90
2018-11-27T18:05:38.590Z,18.07
2018-11-27T18:08:06.357Z,16.80
2018-11-27T18:10:33.622Z,17.30
2018-11-27T18:13:00.914Z,18.10
2018-11-27T18:15:28.433Z,17.50
2018-11-27T18:17:55.722Z,18.15
2018-11-27T18:20:23.213Z,16.90
2018-11-27T18:22:50.486Z,18.92
2018-11-27T18:25:18.617Z,20.20
2018-11-27T18:27:46.404Z,19.30
2018-11-27T18:30:14.267Z,17.35
2018-11-27T18:32:41.618Z,18.92
2018-11-27T18:35:10.514Z,20.57
2018-11-27T18:37:38.010Z,18.30
2018-11-27T18:40:06.176Z,19.50
2018-11-27T18:42:33.696Z,19.75
2018-11-27T18:45:00.997Z,18.50
2018-11-27T18:47:31.316Z,17.98
2018-11-27T18:49:58.589Z,20.57
2018-11-27T18:52:25.883Z,17.52
2018-11-27T18:54:53.169Z,19.57
2018-11-27T18:57:20.426Z,19.30
2018-11-27T18:59:47.806Z,19.20
2018-11-27T19:02:15.354Z,20.10
2018-11-27T19:04:42.683Z,19.57
2018-11-27T19:07:09.966Z,20.10
2018-11-27T19:09:44.911Z,18.92
2018-11-27T19:12:13.193Z,20.00
2018-11-27T19:14:40.611Z,19.15
2018-11-27T19:17:09.167Z,20.52
2018-11-27T19:19:37.278Z,19.75
2018-11-27T19:22:07.438Z,19.50
2018-11-27T19:24:35.279Z,19.82
2018-11-27T19:27:02.962Z,20.35
2018-11-27T19:29:30.251Z,20.27
2018-11-27T19:31:57.543Z,20.75
2018-11-27T19:34:25.265Z,21.30
2018-11-27T19:36:55.320Z,21.25
2018-11-27T19:39:22.744Z,18.95
2018-11-27T19:41:50.257Z,21.45
2018-11-27T19:44:17.518Z,19.50
2018-11-27T19:46:44.843Z,23.62
2018-11-27T19:49:12.599Z,21.62
2018-11-27T19:51:40.831Z,19.98
2018-11-27T19:54:08.316Z,20.60
2018-11-27T19:56:35.669Z,21.00
2018-11-27T19:59:02.995Z,20.17
2018-11-27T20:01:30.280Z,19.37
2018-11-27T20:03:57.546Z,20.12
2018-11-27T20:06:24.831Z,22.52
2018-11-27T20:08:52.086Z,24.52
2018-11-27T20:11:19.404Z,20.08
2018-11-27T20:13:46.699Z,20.50
2018-11-27T20:16:14.015Z,22.07
2018-11-27T20:18:42.531Z,21.23
2018-11-27T20:21:11.328Z,22.45
2018-11-27T20:23:38.843Z,18.62
2018-11-27T20:26:06.267Z,21.42
2018-11-27T20:28:33.903Z,20.15
2018-11-27T20:31:01.307Z,19.70
2018-11-27T20:33:28.815Z,20.20
2018-11-27T20:35:56.177Z,21.30
2018-11-27T20:38:23.450Z,22.45
2018-11-27T20:40:50.862Z,19.80
2018-11-27T20:43:18.200Z,20.17
2018-11-27T20:45:45.516Z,23.50
2018-11-27T20:48:13.905Z,21.90
2018-11-27T20:50:41.581Z,21.07
2018-11-27T20:53:09.143Z,22.05
2018-11-27T20:55:36.510Z,22.13
2018-11-27T20:58:03.880Z,21.02
2018-11-27T21:00:34.051Z,22.13
2018-11-27T21:03:01.840Z,21.10
2018-11-27T21:05:29.141Z,21.90
2018-11-27T21:07:56.461Z,21.05
2018-11-27T21:10:23.750Z,18.10
2018-11-27T21:12:51.028Z,21.65
2018-11-27T21:15:18.933Z,23.12
2018-11-27T21:17:46.322Z,20.92
2018-11-27T21:20:13.942Z,20.10
2018-11-27T21:22:41.318Z,20.57
2018-11-27T21:25:24.035Z,20.08
2018-11-27T21:27:55.087Z,22.73
2018-11-27T21:30:22.366Z,24.02
2018-11-27T21:32:49.623Z,22.58
2018-11-27T21:35:17.116Z,20.92
2018-11-27T21:37:44.402Z,22.13
2018-11-27T21:40:13.205Z,20.92
2018-11-27T21:42:40.488Z,20.52
2018-11-27T21:45:09.549Z,20.70
2018-11-27T21:47:37.298Z,20.12
2018-11-27T21:50:05.846Z,21.05
2018-11-27T21:52:32.691Z,22.20
2018-11-27T21:55:00.207Z,23.20
2018-11-27T21:57:27.757Z,22.77
2018-11-27T21:59:55.016Z,23.65
2018-11-27T22:02:22.326Z,25.37
2018-11-27T22:04:49.839Z,23.05
2018-11-27T22:07:17.199Z,23.85
2018-11-27T22:09:44.707Z,25.05
2018-11-27T22:12:12.010Z,23.38
2018-11-27T22:14:39.539Z,25.17
2018-11-27T22:17:07.062Z,21.07
2018-11-27T22:19:34.684Z,20.97
2018-11-27T22:22:02.245Z,22.15
2018-11-27T22:24:29.805Z,22.58
2018-11-27T22:26:57.081Z,24.47
2018-11-27T22:29:24.363Z,21.05
2018-11-27T22:31:51.621Z,22.67
2018-11-27T22:34:19.495Z,24.67
2018-11-27T22:36:47.280Z,26.90
2018-11-27T22:39:14.563Z,22.90
2018-11-27T22:41:43.433Z,21.95
2018-11-27T22:44:10.690Z,22.00
2018-11-27T22:46:38.094Z,24.35
2018-11-27T22:49:05.466Z,22.42
2018-11-27T22:51:33.022Z,21.02
2018-11-27T22:54:00.283Z,23.15
2018-11-27T22:56:27.742Z,24.10
2018-11-27T22:58:55.023Z,23.30
2018-11-27T23:01:22.330Z,23.92
2018-11-27T23:03:49.647Z,24.27
2018-11-27T23:06:16.978Z,24.00
2018-11-27T23:08:44.291Z,23.00
2018-11-27T23:11:11.629Z,25.08
2018-11-27T23:13:38.902Z,23.47
2018-11-27T23:16:06.504Z,23.52
2018-11-27T23:18:34.530Z,23.67
2018-11-27T23:21:02.034Z,26.95
2018-11-27T23:23:29.402Z,22.65
2018-11-27T23:25:56.940Z,24.15
2018-11-27T23:28:24.272Z,24.50
2018-11-27T23:30:51.806Z,23.40
2018-11-27T23:33:19.088Z,24.55
2018-11-27T23:35:46.360Z,26.37
2018-11-27T23:38:13.630Z,21.52
2018-11-27T23:40:40.950Z,23.12
2018-11-27T23:43:08.397Z,22.45
2018-11-27T23:45:35.808Z,22.77
2018-11-27T23:48:03.677Z,23.73
2018-11-27T23:50:31.030Z,24.52
2018-11-27T23:52:58.522Z,23.35
2018-11-27T23:55:26.388Z,24.07
2018-11-27T23:57:53.746Z,25.17
